Time;durP1;ratioP1;P1;durP2;ratioP2;P2;SDS_P1;SDS_P2;PMS_P1;PMS_P2;Temp;Humidity;BMP_temperature;BMP_pressure;BME280_temperature;BME280_humidity;BME280_pressure;Samples;Min_cycle;Max_cycle;Signal;HPM_P1;HPM_P2
2021/08/03 00:00:29;;;;;;;4.3;3.750001;;;;;;;13.21;100;95273.61;;;;
2021/08/03 00:01:31;;;;;;;3.75;3.45;;;;;;;13.07;100;95268.28;;;;
2021/08/03 00:02:34;;;;;;;3.75;3.45;;;;;;;13.07;100;95268.28;;;;
2021/08/03 00:03:37;;;;;;;3.75;3.45;;;;;;;13.07;100;95268.28;;;;
2021/08/03 00:04:40;;;;;;;3.75;3.45;;;;;;;13.07;100;95268.28;;;;
2021/08/03 00:05:43;;;;;;;3.75;3.45;;;;;;;13.07;100;95268.28;;;;
2021/08/03 00:06:48;;;;;;;3.75;3.45;;;;;;;13.07;100;95268.28;;;;
2021/08/03 00:07:52;;;;;;;3.75;3.45;;;;;;;13.07;100;95268.28;;;;
2021/08/03 00:08:59;;;;;;;3.75;3.45;;;;;;;13.07;100;95268.28;;;;
2021/08/03 00:10:00;;;;;;;3.75;3.45;;;;;;;13.07;100;95268.28;;;;
2021/08/03 00:11:05;;;;;;;3.75;3.45;;;;;;;13.07;100;95268.28;;;;
2021/08/03 00:12:07;;;;;;;4.299999;3.9;;;;;;;12.83;100;95262.24;;;;
2021/08/03 00:13:14;;;;;;;4.299999;3.9;;;;;;;12.83;100;95262.24;;;;
2021/08/03 00:14:17;;;;;;;4.299999;3.9;;;;;;;12.83;100;95262.24;;;;
2021/08/03 00:15:19;;;;;;;4.299999;3.9;;;;;;;12.83;100;95262.24;;;;
2021/08/03 00:16:21;;;;;;;4.299999;3.9;;;;;;;12.83;100;95262.24;;;;
2021/08/03 00:17:22;;;;;;;4.299999;3.9;;;;;;;12.83;100;95262.24;;;;
2021/08/03 00:18:25;;;;;;;4.299999;3.9;;;;;;;12.83;100;95262.24;;;;
2021/08/03 00:19:26;;;;;;;4.299999;3.9;;;;;;;12.83;100;95262.24;;;;
2021/08/03 00:20:26;;;;;;;4.299999;3.9;;;;;;;12.83;100;95262.24;;;;
2021/08/03 00:21:27;;;;;;;4.299999;3.9;;;;;;;12.83;100;95262.24;;;;
2021/08/03 00:22:28;;;;;;;4.750001;3.9;;;;;;;12.69;100;95244.82;;;;
2021/08/03 00:23:29;;;;;;;4.750001;3.9;;;;;;;12.69;100;95244.82;;;;
2021/08/03 00:24:30;;;;;;;4.750001;3.9;;;;;;;12.69;100;95244.82;;;;
2021/08/03 00:25:33;;;;;;;4.750001;3.9;;;;;;;12.69;100;95244.82;;;;
2021/08/03 00:26:33;;;;;;;4.750001;3.9;;;;;;;12.69;100;95244.82;;;;
2021/08/03 00:27:34;;;;;;;4.750001;3.9;;;;;;;12.69;100;95244.82;;;;
2021/08/03 00:28:35;;;;;;;4.750001;3.9;;;;;;;12.69;100;95244.82;;;;
2021/08/03 00:29:36;;;;;;;4.750001;3.9;;;;;;;12.69;100;95244.82;;;;
2021/08/03 00:30:37;;;;;;;4.750001;3.9;;;;;;;12.69;100;95244.82;;;;
2021/08/03 00:31:38;;;;;;;4.750001;3.9;;;;;;;12.69;100;95244.82;;;;
2021/08/03 00:32:39;;;;;;;4.750001;3.9;;;;;;;12.69;100;95244.82;;;;
2021/08/03 00:33:40;;;;;;;4.149999;3.7;;;;;;;12.44;100;95239.45;;;;
2021/08/03 00:34:44;;;;;;;4.149999;3.7;;;;;;;12.44;100;95239.45;;;;
2021/08/03 00:35:44;;;;;;;4.149999;3.7;;;;;;;12.44;100;95239.45;;;;
2021/08/03 00:36:47;;;;;;;4.149999;3.7;;;;;;;12.44;100;95239.45;;;;
2021/08/03 00:37:48;;;;;;;4.149999;3.7;;;;;;;12.44;100;95239.45;;;;
2021/08/03 00:38:49;;;;;;;4.149999;3.7;;;;;;;12.44;100;95239.45;;;;
2021/08/03 00:39:52;;;;;;;4.149999;3.7;;;;;;;12.44;100;95239.45;;;;
2021/08/03 00:40:52;;;;;;;4.149999;3.7;;;;;;;12.44;100;95239.45;;;;
2021/08/03 00:41:58;;;;;;;4.149999;3.7;;;;;;;12.44;100;95239.45;;;;
2021/08/03 00:43:01;;;;;;;4.149999;3.7;;;;;;;12.44;100;95239.45;;;;
2021/08/03 00:44:02;;;;;;;4.3;3.95;;;;;;;12.33;100;95244.84;;;;
2021/08/03 00:45:03;;;;;;;4.3;3.95;;;;;;;12.33;100;95244.84;;;;
2021/08/03 00:46:05;;;;;;;4.3;3.95;;;;;;;12.33;100;95244.84;;;;
2021/08/03 00:47:06;;;;;;;4.3;3.95;;;;;;;12.33;100;95244.84;;;;
2021/08/03 00:48:07;;;;;;;4.3;3.95;;;;;;;12.33;100;95244.84;;;;
2021/08/03 00:49:08;;;;;;;4.3;3.95;;;;;;;12.33;100;95244.84;;;;
2021/08/03 00:50:08;;;;;;;4.3;3.95;;;;;;;12.33;100;95244.84;;;;
2021/08/03 00:51:09;;;;;;;4.3;3.95;;;;;;;12.33;100;95244.84;;;;
2021/08/03 00:52:10;;;;;;;4.3;3.95;;;;;;;12.33;100;95244.84;;;;
2021/08/03 00:53:13;;;;;;;4.3;3.95;;;;;;;12.33;100;95244.84;;;;
2021/08/03 00:54:14;;;;;;;5;4.1;;;;;;;12.25;100;95247.99;;;;
2021/08/03 00:55:15;;;;;;;5;4.1;;;;;;;12.25;100;95247.99;;;;
2021/08/03 00:56:15;;;;;;;5;4.1;;;;;;;12.25;100;95247.99;;;;
2021/08/03 00:57:16;;;;;;;5;4.1;;;;;;;12.25;100;95247.99;;;;
2021/08/03 00:58:17;;;;;;;5;4.1;;;;;;;12.25;100;95247.99;;;;
2021/08/03 00:59:17;;;;;;;5;4.1;;;;;;;12.25;100;95247.99;;;;
2021/08/03 01:00:18;;;;;;;5;4.1;;;;;;;12.25;100;95247.99;;;;
2021/08/03 01:01:19;;;;;;;5;4.1;;;;;;;12.25;100;95247.99;;;;
2021/08/03 01:02:19;;;;;;;5;4.1;;;;;;;12.25;100;95247.99;;;;
2021/08/03 01:03:20;;;;;;;5;4.1;;;;;;;12.25;100;95247.99;;;;
2021/08/03 01:04:20;;;;;;;5;4.1;;;;;;;12.25;100;95247.99;;;;
2021/08/03 01:05:21;;;;;;;3.6;3.3;;;;;;;12.28;100;95254.66;;;;
2021/08/03 01:06:22;;;;;;;3.6;3.3;;;;;;;12.28;100;95254.66;;;;
2021/08/03 01:07:32;;;;;;;3.6;3.3;;;;;;;12.28;100;95254.66;;;;
2021/08/03 01:08:38;;;;;;;3.6;3.3;;;;;;;12.28;100;95254.66;;;;
2021/08/03 01:09:52;;;;;;;3.6;3.3;;;;;;;12.28;100;95254.66;;;;
2021/08/03 01:11:04;;;;;;;3.6;3.3;;;;;;;12.28;100;95254.66;;;;
2021/08/03 01:12:10;;;;;;;3.6;3.3;;;;;;;12.28;100;95254.66;;;;
2021/08/03 01:13:23;;;;;;;3.6;3.3;;;;;;;12.28;100;95254.66;;;;
2021/08/03 01:14:30;;;;;;;3.6;3.3;;;;;;;12.28;100;95254.66;;;;
2021/08/03 01:15:36;;;;;;;3.8;3.25;;;;;;;12.23;100;95256.32;;;;
2021/08/03 01:16:47;;;;;;;3.8;3.25;;;;;;;12.23;100;95256.32;;;;
2021/08/03 01:17:52;;;;;;;3.8;3.25;;;;;;;12.23;100;95256.32;;;;
2021/08/03 01:19:07;;;;;;;3.8;3.25;;;;;;;12.23;100;95256.32;;;;
2021/08/03 01:20:18;;;;;;;3.8;3.25;;;;;;;12.23;100;95256.32;;;;
2021/08/03 01:21:24;;;;;;;3.8;3.25;;;;;;;12.23;100;95256.32;;;;
2021/08/03 01:22:40;;;;;;;3.8;3.25;;;;;;;12.23;100;95256.32;;;;
2021/08/03 01:24:56;;;;;;;3.8;3.25;;;;;;;12.23;100;95256.32;;;;
2021/08/03 01:26:10;;;;;;;3.8;3.25;;;;;;;12.23;100;95256.32;;;;
2021/08/03 01:27:24;;;;;;;4.15;3.55;;;;;;;12.22;100;95256.98;;;;
2021/08/03 01:29:33;;;;;;;4.15;3.55;;;;;;;12.22;100;95256.98;;;;
2021/08/03 01:30:34;;;;;;;4.15;3.55;;;;;;;12.22;100;95256.98;;;;
2021/08/03 01:31:36;;;;;;;4.15;3.55;;;;;;;12.22;100;95256.98;;;;
2021/08/03 01:32:41;;;;;;;4.15;3.55;;;;;;;12.22;100;95256.98;;;;
2021/08/03 01:33:44;;;;;;;4.15;3.55;;;;;;;12.22;100;95256.98;;;;
2021/08/03 01:34:47;;;;;;;4.15;3.55;;;;;;;12.22;100;95256.98;;;;
2021/08/03 01:35:48;;;;;;;4.15;3.55;;;;;;;12.22;100;95256.98;;;;
2021/08/03 01:36:51;;;;;;;4.15;3.55;;;;;;;12.22;100;95256.98;;;;
2021/08/03 01:37:54;;;;;;;4.3;3.9;;;;;;;12.19;100;95246.25;;;;
2021/08/03 01:38:58;;;;;;;4.3;3.9;;;;;;;12.19;100;95246.25;;;;
2021/08/03 01:40:00;;;;;;;4.3;3.9;;;;;;;12.19;100;95246.25;;;;
2021/08/03 01:41:06;;;;;;;4.3;3.9;;;;;;;12.19;100;95246.25;;;;
2021/08/03 01:42:13;;;;;;;4.3;3.9;;;;;;;12.19;100;95246.25;;;;
2021/08/03 01:43:16;;;;;;;4.3;3.9;;;;;;;12.19;100;95246.25;;;;
2021/08/03 01:44:17;;;;;;;4.3;3.9;;;;;;;12.19;100;95246.25;;;;
2021/08/03 01:45:19;;;;;;;4.3;3.9;;;;;;;12.19;100;95246.25;;;;
2021/08/03 01:46:22;;;;;;;4.3;3.9;;;;;;;12.19;100;95246.25;;;;
2021/08/03 01:47:25;;;;;;;4.3;3.9;;;;;;;12.19;100;95246.25;;;;
2021/08/03 01:48:27;;;;;;;4.75;4.2;;;;;;;12.21;100;95241.83;;;;
2021/08/03 01:49:30;;;;;;;4.75;4.2;;;;;;;12.21;100;95241.83;;;;
2021/08/03 01:50:33;;;;;;;4.75;4.2;;;;;;;12.21;100;95241.83;;;;
2021/08/03 01:51:34;;;;;;;4.75;4.2;;;;;;;12.21;100;95241.83;;;;
2021/08/03 01:52:35;;;;;;;4.75;4.2;;;;;;;12.21;100;95241.83;;;;
2021/08/03 01:53:38;;;;;;;4.75;4.2;;;;;;;12.21;100;95241.83;;;;
2021/08/03 01:54:39;;;;;;;4.75;4.2;;;;;;;12.21;100;95241.83;;;;
2021/08/03 01:55:40;;;;;;;4.75;4.2;;;;;;;12.21;100;95241.83;;;;
2021/08/03 01:56:41;;;;;;;4.75;4.2;;;;;;;12.21;100;95241.83;;;;
2021/08/03 01:57:44;;;;;;;4.75;4.2;;;;;;;12.21;100;95241.83;;;;
2021/08/03 01:58:45;;;;;;;4.65;4.149999;;;;;;;12.06;100;95228.04;;;;
2021/08/03 01:59:47;;;;;;;4.65;4.149999;;;;;;;12.06;100;95228.04;;;;
2021/08/03 02:00:49;;;;;;;4.65;4.149999;;;;;;;12.06;100;95228.04;;;;
2021/08/03 02:01:51;;;;;;;4.65;4.149999;;;;;;;12.06;100;95228.04;;;;
2021/08/03 02:02:53;;;;;;;4.65;4.149999;;;;;;;12.06;100;95228.04;;;;
2021/08/03 02:03:53;;;;;;;4.65;4.149999;;;;;;;12.06;100;95228.04;;;;
2021/08/03 02:04:55;;;;;;;4.65;4.149999;;;;;;;12.06;100;95228.04;;;;
2021/08/03 02:05:57;;;;;;;4.65;4.149999;;;;;;;12.06;100;95228.04;;;;
2021/08/03 02:06:58;;;;;;;4.65;4.149999;;;;;;;12.06;100;95228.04;;;;
2021/08/03 02:07:59;;;;;;;4.65;4.149999;;;;;;;12.06;100;95228.04;;;;
2021/08/03 02:09:00;;;;;;;5.25;4.55;;;;;;;11.96;100;95224.21;;;;
2021/08/03 02:10:01;;;;;;;5.25;4.55;;;;;;;11.96;100;95224.21;;;;
2021/08/03 02:11:01;;;;;;;5.25;4.55;;;;;;;11.96;100;95224.21;;;;
2021/08/03 02:12:02;;;;;;;5.25;4.55;;;;;;;11.96;100;95224.21;;;;
2021/08/03 02:13:04;;;;;;;5.25;4.55;;;;;;;11.96;100;95224.21;;;;
2021/08/03 02:14:06;;;;;;;5.25;4.55;;;;;;;11.96;100;95224.21;;;;
2021/08/03 02:15:08;;;;;;;5.25;4.55;;;;;;;11.96;100;95224.21;;;;
2021/08/03 02:16:09;;;;;;;5.25;4.55;;;;;;;11.96;100;95224.21;;;;
2021/08/03 02:17:10;;;;;;;5.25;4.55;;;;;;;11.96;100;95224.21;;;;
2021/08/03 02:18:14;;;;;;;5.25;4.55;;;;;;;11.96;100;95224.21;;;;
2021/08/03 02:19:15;;;;;;;5.25;4.55;;;;;;;11.96;100;95224.21;;;;
2021/08/03 02:20:16;;;;;;;6.2;4.900001;;;;;;;11.8;100;95212.05;;;;
2021/08/03 02:21:16;;;;;;;6.2;4.900001;;;;;;;11.8;100;95212.05;;;;
2021/08/03 02:22:17;;;;;;;6.2;4.900001;;;;;;;11.8;100;95212.05;;;;
2021/08/03 02:23:19;;;;;;;6.2;4.900001;;;;;;;11.8;100;95212.05;;;;
2021/08/03 02:24:20;;;;;;;6.2;4.900001;;;;;;;11.8;100;95212.05;;;;
2021/08/03 02:25:20;;;;;;;6.2;4.900001;;;;;;;11.8;100;95212.05;;;;
2021/08/03 02:26:21;;;;;;;6.2;4.900001;;;;;;;11.8;100;95212.05;;;;
2021/08/03 02:27:21;;;;;;;6.2;4.900001;;;;;;;11.8;100;95212.05;;;;
2021/08/03 02:28:22;;;;;;;6.2;4.900001;;;;;;;11.8;100;95212.05;;;;
2021/08/03 02:29:23;;;;;;;6.2;4.900001;;;;;;;11.8;100;95212.05;;;;
2021/08/03 02:30:23;;;;;;;5.749999;5.15;;;;;;;11.73;100;95201.93;;;;
2021/08/03 02:31:24;;;;;;;5.749999;5.15;;;;;;;11.73;100;95201.93;;;;
2021/08/03 02:32:30;;;;;;;5.749999;5.15;;;;;;;11.73;100;95201.93;;;;
2021/08/03 02:33:40;;;;;;;5.749999;5.15;;;;;;;11.73;100;95201.93;;;;
2021/08/03 02:34:48;;;;;;;5.749999;5.15;;;;;;;11.73;100;95201.93;;;;
2021/08/03 02:35:53;;;;;;;5.749999;5.15;;;;;;;11.73;100;95201.93;;;;
2021/08/03 02:36:57;;;;;;;5.749999;5.15;;;;;;;11.73;100;95201.93;;;;
2021/08/03 02:38:00;;;;;;;5.749999;5.15;;;;;;;11.73;100;95201.93;;;;
2021/08/03 02:39:06;;;;;;;5.749999;5.15;;;;;;;11.73;100;95201.93;;;;
2021/08/03 02:40:07;;;;;;;5.749999;5.15;;;;;;;11.73;100;95201.93;;;;
2021/08/03 02:41:09;;;;;;;5.700001;5;;;;;;;11.67;100;95194.78;;;;
2021/08/03 02:42:10;;;;;;;5.700001;5;;;;;;;11.67;100;95194.78;;;;
2021/08/03 02:43:12;;;;;;;5.700001;5;;;;;;;11.67;100;95194.78;;;;
2021/08/03 02:44:15;;;;;;;5.700001;5;;;;;;;11.67;100;95194.78;;;;
2021/08/03 02:45:19;;;;;;;5.700001;5;;;;;;;11.67;100;95194.78;;;;
2021/08/03 02:46:23;;;;;;;5.700001;5;;;;;;;11.67;100;95194.78;;;;
2021/08/03 02:47:26;;;;;;;5.700001;5;;;;;;;11.67;100;95194.78;;;;
2021/08/03 02:48:29;;;;;;;5.700001;5;;;;;;;11.67;100;95194.78;;;;
2021/08/03 02:49:35;;;;;;;5.700001;5;;;;;;;11.67;100;95194.78;;;;
2021/08/03 02:50:35;;;;;;;5.700001;5;;;;;;;11.67;100;95194.78;;;;
2021/08/03 02:51:37;;;;;;;5.5;5;;;;;;;11.72;100;95193.4;;;;
2021/08/03 02:52:39;;;;;;;5.5;5;;;;;;;11.72;100;95193.4;;;;
2021/08/03 02:53:43;;;;;;;5.5;5;;;;;;;11.72;100;95193.4;;;;
2021/08/03 02:54:46;;;;;;;5.5;5;;;;;;;11.72;100;95193.4;;;;
2021/08/03 02:55:51;;;;;;;5.5;5;;;;;;;11.72;100;95193.4;;;;
2021/08/03 02:56:56;;;;;;;5.5;5;;;;;;;11.72;100;95193.4;;;;
2021/08/03 02:58:00;;;;;;;5.5;5;;;;;;;11.72;100;95193.4;;;;
2021/08/03 02:59:04;;;;;;;5.5;5;;;;;;;11.72;100;95193.4;;;;
2021/08/03 03:00:09;;;;;;;5.5;5;;;;;;;11.72;100;95193.4;;;;
2021/08/03 03:01:10;;;;;;;5.5;5;;;;;;;11.72;100;95193.4;;;;
2021/08/03 03:02:12;;;;;;;5.5;5;;;;;;;11.72;100;95193.4;;;;
2021/08/03 03:03:14;;;;;;;6.199999;5.5;;;;;;;11.76;100;95184.27;;;;
2021/08/03 03:04:19;;;;;;;6.199999;5.5;;;;;;;11.76;100;95184.27;;;;
2021/08/03 03:05:24;;;;;;;6.199999;5.5;;;;;;;11.76;100;95184.27;;;;
2021/08/03 03:06:27;;;;;;;6.199999;5.5;;;;;;;11.76;100;95184.27;;;;
2021/08/03 03:07:32;;;;;;;6.199999;5.5;;;;;;;11.76;100;95184.27;;;;
2021/08/03 03:08:37;;;;;;;6.199999;5.5;;;;;;;11.76;100;95184.27;;;;
2021/08/03 03:09:42;;;;;;;6.199999;5.5;;;;;;;11.76;100;95184.27;;;;
2021/08/03 03:10:44;;;;;;;6.199999;5.5;;;;;;;11.76;100;95184.27;;;;
2021/08/03 03:11:48;;;;;;;6.199999;5.5;;;;;;;11.76;100;95184.27;;;;
2021/08/03 03:12:52;;;;;;;6.199999;5.5;;;;;;;11.76;100;95184.27;;;;
2021/08/03 03:13:56;;;;;;;5.599999;4.85;;;;;;;11.98;100;95186.11;;;;
2021/08/03 03:14:59;;;;;;;5.599999;4.85;;;;;;;11.98;100;95186.11;;;;
2021/08/03 03:16:02;;;;;;;5.599999;4.85;;;;;;;11.98;100;95186.11;;;;
2021/08/03 03:17:06;;;;;;;5.599999;4.85;;;;;;;11.98;100;95186.11;;;;
2021/08/03 03:18:09;;;;;;;5.599999;4.85;;;;;;;11.98;100;95186.11;;;;
2021/08/03 03:19:10;;;;;;;5.599999;4.85;;;;;;;11.98;100;95186.11;;;;
2021/08/03 03:20:15;;;;;;;5.599999;4.85;;;;;;;11.98;100;95186.11;;;;
2021/08/03 03:21:17;;;;;;;5.599999;4.85;;;;;;;11.98;100;95186.11;;;;
2021/08/03 03:22:21;;;;;;;5.599999;4.85;;;;;;;11.98;100;95186.11;;;;
2021/08/03 03:23:23;;;;;;;5.599999;4.85;;;;;;;11.98;100;95186.11;;;;
2021/08/03 03:24:25;;;;;;;6.15;5;;;;;;;12.06;100;95191.92;;;;
2021/08/03 03:25:29;;;;;;;6.15;5;;;;;;;12.06;100;95191.92;;;;
2021/08/03 03:26:30;;;;;;;6.15;5;;;;;;;12.06;100;95191.92;;;;
2021/08/03 03:27:33;;;;;;;6.15;5;;;;;;;12.06;100;95191.92;;;;
2021/08/03 03:28:35;;;;;;;6.15;5;;;;;;;12.06;100;95191.92;;;;
2021/08/03 03:29:39;;;;;;;6.15;5;;;;;;;12.06;100;95191.92;;;;
2021/08/03 03:30:40;;;;;;;6.15;5;;;;;;;12.06;100;95191.92;;;;
2021/08/03 03:31:42;;;;;;;6.15;5;;;;;;;12.06;100;95191.92;;;;
2021/08/03 03:32:45;;;;;;;6.15;5;;;;;;;12.06;100;95191.92;;;;
2021/08/03 03:33:47;;;;;;;6.15;5;;;;;;;12.06;100;95191.92;;;;
2021/08/03 03:34:52;;;;;;;6.7;5.799999;;;;;;;12.17;100;95185.19;;;;
2021/08/03 03:35:54;;;;;;;6.7;5.799999;;;;;;;12.17;100;95185.19;;;;
2021/08/03 03:36:58;;;;;;;6.7;5.799999;;;;;;;12.17;100;95185.19;;;;
2021/08/03 03:37:59;;;;;;;6.7;5.799999;;;;;;;12.17;100;95185.19;;;;
2021/08/03 03:39:01;;;;;;;6.7;5.799999;;;;;;;12.17;100;95185.19;;;;
2021/08/03 03:40:04;;;;;;;6.7;5.799999;;;;;;;12.17;100;95185.19;;;;
2021/08/03 03:41:06;;;;;;;6.7;5.799999;;;;;;;12.17;100;95185.19;;;;
2021/08/03 03:42:07;;;;;;;6.7;5.799999;;;;;;;12.17;100;95185.19;;;;
2021/08/03 03:43:07;;;;;;;6.7;5.799999;;;;;;;12.17;100;95185.19;;;;
2021/08/03 03:44:08;;;;;;;6.7;5.799999;;;;;;;12.17;100;95185.19;;;;
2021/08/03 03:45:09;;;;;;;6.299999;5.7;;;;;;;12.18;100;95184.1;;;;
2021/08/03 03:46:11;;;;;;;6.299999;5.7;;;;;;;12.18;100;95184.1;;;;
2021/08/03 03:47:13;;;;;;;6.299999;5.7;;;;;;;12.18;100;95184.1;;;;
2021/08/03 03:48:19;;;;;;;6.299999;5.7;;;;;;;12.18;100;95184.1;;;;
2021/08/03 03:49:22;;;;;;;6.299999;5.7;;;;;;;12.18;100;95184.1;;;;
2021/08/03 03:50:25;;;;;;;6.299999;5.7;;;;;;;12.18;100;95184.1;;;;
2021/08/03 03:51:30;;;;;;;6.299999;5.7;;;;;;;12.18;100;95184.1;;;;
2021/08/03 03:52:34;;;;;;;6.299999;5.7;;;;;;;12.18;100;95184.1;;;;
2021/08/03 03:53:40;;;;;;;6.299999;5.7;;;;;;;12.18;100;95184.1;;;;
2021/08/03 03:54:43;;;;;;;6.299999;5.7;;;;;;;12.18;100;95184.1;;;;
2021/08/03 03:55:46;;;;;;;5.7;5.199999;;;;;;;12.21;100;95189.04;;;;
2021/08/03 03:56:50;;;;;;;5.7;5.199999;;;;;;;12.21;100;95189.04;;;;
2021/08/03 03:57:56;;;;;;;5.7;5.199999;;;;;;;12.21;100;95189.04;;;;
2021/08/03 03:58:57;;;;;;;5.7;5.199999;;;;;;;12.21;100;95189.04;;;;
2021/08/03 04:00:00;;;;;;;5.7;5.199999;;;;;;;12.21;100;95189.04;;;;
2021/08/03 04:01:00;;;;;;;5.7;5.199999;;;;;;;12.21;100;95189.04;;;;
2021/08/03 04:02:01;;;;;;;5.7;5.199999;;;;;;;12.21;100;95189.04;;;;
2021/08/03 04:03:06;;;;;;;5.7;5.199999;;;;;;;12.21;100;95189.04;;;;
2021/08/03 04:04:08;;;;;;;5.7;5.199999;;;;;;;12.21;100;95189.04;;;;
2021/08/03 04:05:10;;;;;;;5.7;5.199999;;;;;;;12.21;100;95189.04;;;;
2021/08/03 04:06:12;;;;;;;5.7;5.199999;;;;;;;12.21;100;95189.04;;;;
2021/08/03 04:07:13;;;;;;;6.949999;5.149999;;;;;;;12.14;100;95189.34;;;;
2021/08/03 04:08:14;;;;;;;6.949999;5.149999;;;;;;;12.14;100;95189.34;;;;
2021/08/03 04:09:14;;;;;;;6.949999;5.149999;;;;;;;12.14;100;95189.34;;;;
2021/08/03 04:10:17;;;;;;;6.949999;5.149999;;;;;;;12.14;100;95189.34;;;;
2021/08/03 04:11:29;;;;;;;6.949999;5.149999;;;;;;;12.14;100;95189.34;;;;
2021/08/03 04:12:30;;;;;;;6.949999;5.149999;;;;;;;12.14;100;95189.34;;;;
2021/08/03 04:13:30;;;;;;;6.949999;5.149999;;;;;;;12.14;100;95189.34;;;;
2021/08/03 04:14:31;;;;;;;6.949999;5.149999;;;;;;;12.14;100;95189.34;;;;
2021/08/03 04:15:34;;;;;;;6.949999;5.149999;;;;;;;12.14;100;95189.34;;;;
2021/08/03 04:16:35;;;;;;;6.949999;5.149999;;;;;;;12.14;100;95189.34;;;;
2021/08/03 04:17:35;;;;;;;6.949999;5.149999;;;;;;;12.14;100;95189.34;;;;
2021/08/03 04:18:36;;;;;;;6.949999;5.149999;;;;;;;12.14;100;95189.34;;;;
2021/08/03 04:19:37;;;;;;;6.949999;5.149999;;;;;;;12.14;100;95189.34;;;;
2021/08/03 04:20:38;;;;;;;6.949999;5.149999;;;;;;;12.14;100;95189.34;;;;
2021/08/03 04:21:38;;;;;;;6.949999;5.149999;;;;;;;12.14;100;95189.34;;;;
2021/08/03 04:22:39;;;;;;;6.949999;5.149999;;;;;;;12.14;100;95189.34;;;;
2021/08/03 04:23:39;;;;;;;6.949999;5.149999;;;;;;;12.14;100;95189.34;;;;
2021/08/03 04:24:40;;;;;;;6.949999;5.149999;;;;;;;12.14;100;95189.34;;;;
2021/08/03 04:25:40;;;;;;;6.949999;5.149999;;;;;;;12.14;100;95189.34;;;;
2021/08/03 04:26:41;;;;;;;6.949999;5.149999;;;;;;;12.14;100;95189.34;;;;
2021/08/03 04:27:42;;;;;;;6.299999;5.749999;;;;;;;12;100;95174.51;;;;
2021/08/03 04:28:43;;;;;;;6.299999;5.749999;;;;;;;12;100;95174.51;;;;
2021/08/03 04:29:43;;;;;;;6.299999;5.749999;;;;;;;12;100;95174.51;;;;
2021/08/03 04:30:44;;;;;;;6.299999;5.749999;;;;;;;12;100;95174.51;;;;
2021/08/03 04:31:44;;;;;;;6.299999;5.749999;;;;;;;12;100;95174.51;;;;
2021/08/03 04:32:45;;;;;;;6.299999;5.749999;;;;;;;12;100;95174.51;;;;
2021/08/03 04:33:45;;;;;;;6.299999;5.749999;;;;;;;12;100;95174.51;;;;
2021/08/03 04:34:46;;;;;;;6.299999;5.749999;;;;;;;12;100;95174.51;;;;
2021/08/03 04:35:46;;;;;;;6.299999;5.749999;;;;;;;12;100;95174.51;;;;
2021/08/03 04:36:47;;;;;;;6.299999;5.749999;;;;;;;12;100;95174.51;;;;
2021/08/03 04:37:47;;;;;;;6.299999;5.749999;;;;;;;12;100;95174.51;;;;
2021/08/03 04:38:48;;;;;;;6.199999;5.600001;;;;;;;11.96;100;95159.27;;;;
2021/08/03 04:39:48;;;;;;;6.199999;5.600001;;;;;;;11.96;100;95159.27;;;;
2021/08/03 04:40:49;;;;;;;6.199999;5.600001;;;;;;;11.96;100;95159.27;;;;
2021/08/03 04:41:50;;;;;;;6.199999;5.600001;;;;;;;11.96;100;95159.27;;;;
2021/08/03 04:42:50;;;;;;;6.199999;5.600001;;;;;;;11.96;100;95159.27;;;;
2021/08/03 04:43:51;;;;;;;6.199999;5.600001;;;;;;;11.96;100;95159.27;;;;
2021/08/03 04:44:51;;;;;;;6.199999;5.600001;;;;;;;11.96;100;95159.27;;;;
2021/08/03 04:45:52;;;;;;;6.199999;5.600001;;;;;;;11.96;100;95159.27;;;;
2021/08/03 04:46:52;;;;;;;6.199999;5.600001;;;;;;;11.96;100;95159.27;;;;
2021/08/03 04:47:53;;;;;;;6.199999;5.600001;;;;;;;11.96;100;95159.27;;;;
2021/08/03 04:48:54;;;;;;;6.199999;5.600001;;;;;;;11.96;100;95159.27;;;;
2021/08/03 04:49:54;;;;;;;6.349999;5.749999;;;;;;;12.03;100;95154.54;;;;
2021/08/03 04:50:55;;;;;;;6.349999;5.749999;;;;;;;12.03;100;95154.54;;;;
2021/08/03 04:51:55;;;;;;;6.349999;5.749999;;;;;;;12.03;100;95154.54;;;;
2021/08/03 04:52:56;;;;;;;6.349999;5.749999;;;;;;;12.03;100;95154.54;;;;
2021/08/03 04:53:57;;;;;;;6.349999;5.749999;;;;;;;12.03;100;95154.54;;;;
2021/08/03 04:54:57;;;;;;;6.349999;5.749999;;;;;;;12.03;100;95154.54;;;;
2021/08/03 04:55:57;;;;;;;6.349999;5.749999;;;;;;;12.03;100;95154.54;;;;
2021/08/03 04:56:58;;;;;;;6.349999;5.749999;;;;;;;12.03;100;95154.54;;;;
2021/08/03 04:57:59;;;;;;;6.349999;5.749999;;;;;;;12.03;100;95154.54;;;;
2021/08/03 04:58:59;;;;;;;6.349999;5.749999;;;;;;;12.03;100;95154.54;;;;
2021/08/03 05:00:00;;;;;;;6.299999;5.7;;;;;;;12.12;100;95140.88;;;;
2021/08/03 05:01:00;;;;;;;6.299999;5.7;;;;;;;12.12;100;95140.88;;;;
2021/08/03 05:02:01;;;;;;;6.299999;5.7;;;;;;;12.12;100;95140.88;;;;
2021/08/03 05:03:02;;;;;;;6.299999;5.7;;;;;;;12.12;100;95140.88;;;;
2021/08/03 05:04:03;;;;;;;6.299999;5.7;;;;;;;12.12;100;95140.88;;;;
2021/08/03 05:05:04;;;;;;;6.299999;5.7;;;;;;;12.12;100;95140.88;;;;
2021/08/03 05:06:06;;;;;;;6.299999;5.7;;;;;;;12.12;100;95140.88;;;;
2021/08/03 05:07:07;;;;;;;6.299999;5.7;;;;;;;12.12;100;95140.88;;;;
2021/08/03 05:08:08;;;;;;;6.299999;5.7;;;;;;;12.12;100;95140.88;;;;
2021/08/03 05:09:09;;;;;;;6.299999;5.7;;;;;;;12.12;100;95140.88;;;;
2021/08/03 05:10:10;;;;;;;6.299999;5.7;;;;;;;12.12;100;95140.88;;;;
2021/08/03 05:11:11;;;;;;;8.6;6.55;;;;;;;12.28;100;95135.96;;;;
2021/08/03 05:12:12;;;;;;;8.6;6.55;;;;;;;12.28;100;95135.96;;;;
2021/08/03 05:13:12;;;;;;;8.6;6.55;;;;;;;12.28;100;95135.96;;;;
2021/08/03 05:14:13;;;;;;;8.6;6.55;;;;;;;12.28;100;95135.96;;;;
2021/08/03 05:15:13;;;;;;;8.6;6.55;;;;;;;12.28;100;95135.96;;;;
2021/08/03 05:16:14;;;;;;;8.6;6.55;;;;;;;12.28;100;95135.96;;;;
2021/08/03 05:17:14;;;;;;;8.6;6.55;;;;;;;12.28;100;95135.96;;;;
2021/08/03 05:18:15;;;;;;;8.6;6.55;;;;;;;12.28;100;95135.96;;;;
2021/08/03 05:19:16;;;;;;;8.6;6.55;;;;;;;12.28;100;95135.96;;;;
2021/08/03 05:20:16;;;;;;;8.6;6.55;;;;;;;12.28;100;95135.96;;;;
2021/08/03 05:21:18;;;;;;;6.4;5.799999;;;;;;;12.46;100;95122.24;;;;
2021/08/03 05:22:18;;;;;;;6.4;5.799999;;;;;;;12.46;100;95122.24;;;;
2021/08/03 05:23:19;;;;;;;6.4;5.799999;;;;;;;12.46;100;95122.24;;;;
2021/08/03 05:24:25;;;;;;;6.4;5.799999;;;;;;;12.46;100;95122.24;;;;
2021/08/03 05:25:26;;;;;;;6.4;5.799999;;;;;;;12.46;100;95122.24;;;;
2021/08/03 05:26:27;;;;;;;6.4;5.799999;;;;;;;12.46;100;95122.24;;;;
2021/08/03 05:27:27;;;;;;;6.4;5.799999;;;;;;;12.46;100;95122.24;;;;
2021/08/03 05:28:28;;;;;;;6.4;5.799999;;;;;;;12.46;100;95122.24;;;;
2021/08/03 05:29:30;;;;;;;6.4;5.799999;;;;;;;12.46;100;95122.24;;;;
2021/08/03 05:30:31;;;;;;;6.4;5.799999;;;;;;;12.46;100;95122.24;;;;
2021/08/03 05:31:31;;;;;;;6.4;5.799999;;;;;;;12.46;100;95122.24;;;;
2021/08/03 05:32:32;;;;;;;6.349999;5.749999;;;;;;;12.8;100;95120.5;;;;
2021/08/03 05:33:33;;;;;;;6.349999;5.749999;;;;;;;12.8;100;95120.5;;;;
2021/08/03 05:34:33;;;;;;;6.349999;5.749999;;;;;;;12.8;100;95120.5;;;;
2021/08/03 05:35:34;;;;;;;6.349999;5.749999;;;;;;;12.8;100;95120.5;;;;
2021/08/03 05:36:35;;;;;;;6.349999;5.749999;;;;;;;12.8;100;95120.5;;;;
2021/08/03 05:37:35;;;;;;;6.349999;5.749999;;;;;;;12.8;100;95120.5;;;;
2021/08/03 05:38:36;;;;;;;6.349999;5.749999;;;;;;;12.8;100;95120.5;;;;
2021/08/03 05:39:37;;;;;;;6.349999;5.749999;;;;;;;12.8;100;95120.5;;;;
2021/08/03 05:40:38;;;;;;;6.349999;5.749999;;;;;;;12.8;100;95120.5;;;;
2021/08/03 05:41:38;;;;;;;6.349999;5.749999;;;;;;;12.8;100;95120.5;;;;
2021/08/03 05:42:39;;;;;;;6.650001;5.55;;;;;;;13.17;100;95135.57;;;;
2021/08/03 05:43:41;;;;;;;6.650001;5.55;;;;;;;13.17;100;95135.57;;;;
2021/08/03 05:44:41;;;;;;;6.650001;5.55;;;;;;;13.17;100;95135.57;;;;
2021/08/03 05:45:42;;;;;;;6.650001;5.55;;;;;;;13.17;100;95135.57;;;;
2021/08/03 05:46:42;;;;;;;6.650001;5.55;;;;;;;13.17;100;95135.57;;;;
2021/08/03 05:47:43;;;;;;;6.650001;5.55;;;;;;;13.17;100;95135.57;;;;
2021/08/03 05:48:44;;;;;;;6.650001;5.55;;;;;;;13.17;100;95135.57;;;;
2021/08/03 05:49:44;;;;;;;6.650001;5.55;;;;;;;13.17;100;95135.57;;;;
2021/08/03 05:50:45;;;;;;;6.650001;5.55;;;;;;;13.17;100;95135.57;;;;
2021/08/03 05:51:45;;;;;;;6.650001;5.55;;;;;;;13.17;100;95135.57;;;;
2021/08/03 05:52:46;;;;;;;6.650001;5.55;;;;;;;13.17;100;95135.57;;;;
2021/08/03 05:53:46;;;;;;;5.55;5;;;;;;;13.68;100;95130.91;;;;
2021/08/03 05:54:47;;;;;;;5.55;5;;;;;;;13.68;100;95130.91;;;;
2021/08/03 05:55:47;;;;;;;5.55;5;;;;;;;13.68;100;95130.91;;;;
2021/08/03 05:56:47;;;;;;;5.55;5;;;;;;;13.68;100;95130.91;;;;
2021/08/03 05:57:48;;;;;;;5.55;5;;;;;;;13.68;100;95130.91;;;;
2021/08/03 05:58:48;;;;;;;5.55;5;;;;;;;13.68;100;95130.91;;;;
2021/08/03 05:59:49;;;;;;;5.55;5;;;;;;;13.68;100;95130.91;;;;
2021/08/03 06:00:49;;;;;;;5.55;5;;;;;;;13.68;100;95130.91;;;;
2021/08/03 06:01:50;;;;;;;5.55;5;;;;;;;13.68;100;95130.91;;;;
2021/08/03 06:02:51;;;;;;;5.55;5;;;;;;;13.68;100;95130.91;;;;
2021/08/03 06:03:52;;;;;;;5.849999;4.55;;;;;;;14.17;100;95139.14;;;;
2021/08/03 06:04:52;;;;;;;5.849999;4.55;;;;;;;14.17;100;95139.14;;;;
2021/08/03 06:05:52;;;;;;;5.849999;4.55;;;;;;;14.17;100;95139.14;;;;
2021/08/03 06:06:53;;;;;;;5.849999;4.55;;;;;;;14.17;100;95139.14;;;;
2021/08/03 06:07:55;;;;;;;5.849999;4.55;;;;;;;14.17;100;95139.14;;;;
2021/08/03 06:08:59;;;;;;;5.849999;4.55;;;;;;;14.17;100;95139.14;;;;
2021/08/03 06:10:00;;;;;;;5.849999;4.55;;;;;;;14.17;100;95139.14;;;;